createdAt,value
2018-09-10T00:03:53.884Z,5.40
2018-09-10T00:09:12.466Z,4.47
2018-09-10T00:14:18.095Z,5.70
2018-09-10T00:19:22.184Z,14.37
2018-09-10T00:24:25.837Z,6.33
2018-09-10T00:29:29.322Z,10.67
2018-09-10T00:34:32.748Z,6.43
2018-09-10T00:39:36.347Z,8.13
2018-09-10T00:44:40.292Z,4.90
2018-09-10T00:49:43.976Z,5.20
2018-09-10T00:54:48.101Z,5.20
2018-09-10T00:59:52.415Z,5.47
2018-09-10T01:04:55.784Z,4.83
2018-09-10T01:09:59.267Z,7.03
2018-09-10T01:15:03.065Z,7.87
2018-09-10T01:20:06.661Z,6.80
2018-09-10T01:25:10.678Z,6.40
2018-09-10T01:30:14.966Z,4.30
2018-09-10T01:35:18.560Z,4.30
2018-09-10T01:40:22.118Z,6.00
2018-09-10T01:45:25.928Z,3.80
2018-09-10T01:50:29.518Z,5.27
2018-09-10T01:55:33.566Z,12.00
2018-09-10T02:00:37.959Z,11.90
2018-09-10T02:05:41.708Z,9.43
2018-09-10T02:10:45.216Z,5.13
2018-09-10T02:15:51.594Z,11.80
2018-09-10T02:20:55.044Z,6.53
2018-09-10T02:25:58.523Z,5.70
2018-09-10T02:31:03.485Z,6.07
2018-09-10T02:36:07.236Z,12.10
2018-09-10T02:41:10.665Z,23.23
2018-09-10T02:46:14.238Z,14.70
2018-09-10T02:52:32.143Z,6.50
2018-09-10T02:57:35.517Z,8.43
2018-09-10T03:02:39.640Z,11.50
2018-09-10T03:07:43.808Z,7.37
2018-09-10T03:12:47.547Z,11.73
2018-09-10T03:17:51.672Z,7.23
2018-09-10T03:22:55.441Z,19.53
2018-09-10T03:27:59.360Z,14.87
2018-09-10T03:33:08.171Z,11.43
2018-09-10T03:38:12.643Z,8.97
2018-09-10T03:43:20.091Z,15.77
2018-09-10T03:48:23.865Z,12.13
2018-09-10T03:53:27.531Z,10.23
2018-09-10T03:58:30.920Z,6.60
2018-09-10T04:03:34.983Z,10.07
2018-09-10T04:08:39.284Z,9.73
2018-09-10T04:13:43.466Z,11.93
2018-09-10T04:18:47.265Z,8.03
2018-09-10T04:23:50.819Z,8.83
2018-09-10T04:28:54.186Z,16.70
2018-09-10T04:33:57.851Z,10.93
2018-09-10T04:39:01.271Z,24.27
2018-09-10T04:44:05.070Z,38.87
2018-09-10T04:49:09.688Z,8.00
2018-09-10T04:54:13.147Z,14.63
2018-09-10T04:59:16.602Z,8.70
2018-09-10T05:04:20.367Z,16.30
2018-09-10T05:09:23.691Z,21.20
2018-09-10T05:14:27.059Z,23.60
2018-09-10T05:19:32.048Z,22.80
2018-09-10T05:24:41.692Z,20.50
2018-09-10T05:29:45.622Z,15.23
2018-09-10T05:34:56.027Z,18.90
2018-09-10T05:39:59.964Z,16.53
2018-09-10T05:45:03.352Z,14.60
2018-09-10T05:50:14.330Z,21.33
2018-09-10T05:55:18.720Z,20.77
2018-09-10T06:00:22.097Z,14.50
2018-09-10T06:05:25.728Z,22.53
2018-09-10T06:10:29.126Z,24.93
2018-09-10T06:15:32.465Z,31.40
2018-09-10T06:20:35.824Z,49.80
2018-09-10T06:25:39.192Z,31.97
2018-09-10T06:30:42.541Z,42.57
2018-09-10T06:35:46.094Z,45.63
2018-09-10T06:40:49.879Z,30.50
2018-09-10T06:45:53.397Z,35.17
2018-09-10T06:50:56.914Z,28.57
2018-09-10T06:56:01.841Z,24.77
2018-09-10T07:01:05.302Z,34.00
2018-09-10T07:06:12.390Z,28.57
2018-09-10T07:11:16.271Z,25.67
2018-09-10T07:16:19.667Z,20.53
2018-09-10T07:21:23.531Z,32.07
2018-09-10T07:26:26.921Z,17.10
2018-09-10T07:31:30.345Z,29.13
2018-09-10T07:36:34.088Z,32.47
2018-09-10T07:41:37.853Z,26.33
2018-09-10T07:46:41.327Z,38.17
2018-09-10T07:51:44.719Z,29.40
2018-09-10T07:56:48.056Z,32.73
2018-09-10T08:01:51.412Z,34.10
2018-09-10T08:06:55.001Z,27.53
2018-09-10T08:11:58.307Z,16.23
2018-09-10T08:17:01.946Z,30.30
2018-09-10T08:22:05.346Z,31.60
2018-09-10T08:27:08.730Z,14.50
2018-09-10T08:32:12.204Z,15.47
2018-09-10T08:37:15.728Z,22.30
2018-09-10T08:42:19.037Z,27.60
2018-09-10T08:47:22.692Z,23.10
2018-09-10T08:52:26.177Z,18.87
2018-09-10T08:57:29.550Z,28.20
2018-09-10T09:02:32.972Z,12.63
2018-09-10T09:07:36.920Z,22.23
2018-09-10T09:12:40.344Z,12.47
2018-09-10T09:17:44.095Z,17.00
2018-09-10T09:22:48.077Z,8.10
2018-09-10T09:27:51.765Z,18.43
2018-09-10T09:32:55.180Z,14.93
2018-09-10T09:38:03.869Z,11.83
2018-09-10T09:43:12.713Z,15.40
2018-09-10T09:48:16.093Z,15.63
2018-09-10T09:53:20.068Z,14.90
2018-09-10T09:58:23.529Z,8.00
2018-09-10T10:03:32.434Z,5.83
2018-09-10T10:08:40.997Z,7.10
2018-09-10T10:13:44.848Z,9.53
2018-09-10T10:18:48.333Z,13.50
2018-09-10T10:23:52.075Z,18.73
2018-09-10T10:28:55.545Z,6.80
2018-09-10T10:33:59.017Z,7.77
2018-09-10T10:39:05.292Z,16.07
2018-09-10T10:44:08.622Z,8.53
2018-09-10T10:49:12.071Z,12.17
2018-09-10T10:54:15.887Z,8.40
2018-09-10T10:59:19.364Z,13.77
2018-09-10T11:04:22.781Z,13.30
2018-09-10T11:09:33.119Z,11.47
2018-09-10T11:14:37.015Z,5.90
2018-09-10T11:19:40.417Z,8.27
2018-09-10T11:24:43.851Z,4.43
2018-09-10T11:29:47.551Z,7.20
2018-09-10T11:34:51.879Z,6.60
2018-09-10T11:39:55.472Z,8.53
2018-09-10T11:44:58.785Z,6.60
2018-09-10T11:50:02.238Z,6.00
2018-09-10T11:55:06.999Z,20.80
2018-09-10T12:00:10.895Z,5.67
2018-09-10T12:05:14.336Z,8.30
2018-09-10T12:10:17.763Z,8.50
2018-09-10T12:15:21.250Z,9.40
2018-09-10T12:20:24.646Z,10.63
2018-09-10T12:25:28.181Z,3.83
2018-09-10T12:30:32.050Z,7.97
2018-09-10T12:35:35.496Z,7.10
2018-09-10T12:40:39.532Z,3.00
2018-09-10T12:45:42.917Z,6.53
2018-09-10T12:50:46.221Z,3.80
2018-09-10T12:55:49.614Z,5.33
2018-09-10T13:00:52.969Z,9.67
2018-09-10T13:05:56.822Z,3.80
2018-09-10T13:11:06.651Z,5.67
2018-09-10T13:16:14.597Z,12.60
2018-09-10T13:21:18.936Z,8.40
2018-09-10T13:26:22.378Z,7.40
2018-09-10T13:31:25.740Z,8.50
2018-09-10T13:36:29.392Z,8.30
2018-09-10T13:41:33.118Z,8.77
2018-09-10T13:46:36.483Z,12.03
2018-09-10T13:51:39.821Z,7.83
2018-09-10T13:56:43.409Z,4.30
2018-09-10T14:01:46.755Z,10.43
2018-09-10T14:06:50.519Z,7.30
2018-09-10T14:11:54.175Z,7.83
2018-09-10T14:16:57.529Z,8.37
2018-09-10T14:22:00.906Z,17.80
2018-09-10T14:27:04.580Z,11.20
2018-09-10T14:32:07.906Z,9.43
2018-09-10T14:37:11.453Z,10.53
2018-09-10T14:42:15.595Z,11.20
2018-09-10T14:47:19.079Z,6.83
2018-09-10T14:52:22.456Z,13.57
2018-09-10T14:57:30.222Z,14.20
2018-09-10T15:02:34.328Z,12.77
2018-09-10T15:07:37.730Z,10.30
2018-09-10T15:12:41.578Z,27.07
2018-09-10T15:17:45.195Z,6.60
2018-09-10T15:22:48.537Z,10.23
2018-09-10T15:27:52.240Z,16.87
2018-09-10T15:32:55.814Z,7.33
2018-09-10T15:37:59.227Z,12.10
2018-09-10T15:43:02.963Z,9.53
2018-09-10T15:48:06.311Z,15.93
2018-09-10T15:53:13.213Z,12.60
2018-09-10T15:58:20.872Z,9.50
2018-09-10T16:03:24.808Z,13.40
2018-09-10T16:08:28.787Z,10.23
2018-09-10T16:13:32.366Z,14.33
2018-09-10T16:18:35.756Z,16.27
2018-09-10T16:23:39.390Z,10.20
2018-09-10T16:28:46.473Z,19.83
2018-09-10T16:33:50.174Z,15.07
2018-09-10T16:38:53.582Z,7.37
2018-09-10T16:43:57.209Z,15.43
2018-09-10T16:49:00.681Z,20.60
2018-09-10T16:54:08.106Z,13.83
2018-09-10T16:59:12.511Z,8.93
2018-09-10T17:04:22.634Z,20.70
2018-09-10T17:09:26.913Z,10.40
2018-09-10T17:14:31.254Z,8.93
2018-09-10T17:19:34.847Z,15.80
2018-09-10T17:24:38.267Z,20.00
2018-09-10T17:29:41.651Z,18.30
2018-09-10T17:34:45.075Z,23.47
2018-09-10T17:39:48.853Z,17.03
2018-09-10T17:44:54.101Z,15.90
2018-09-10T17:49:57.473Z,8.93
2018-09-10T17:55:00.828Z,22.27
2018-09-10T18:00:08.940Z,13.67
2018-09-10T18:05:17.046Z,5.57
2018-09-10T18:10:21.329Z,4.27
2018-09-10T18:15:24.826Z,12.67
2018-09-10T18:20:28.224Z,7.20
2018-09-10T18:25:32.081Z,4.30
2018-09-10T18:30:35.653Z,11.20
2018-09-10T18:35:39.602Z,19.53
2018-09-10T18:40:43.005Z,8.63
2018-09-10T18:45:47.005Z,9.83
2018-09-10T18:50:50.485Z,12.63
2018-09-10T18:55:53.876Z,12.27
2018-09-10T19:00:57.529Z,6.73
2018-09-10T19:06:00.933Z,12.33
2018-09-10T19:11:04.377Z,11.10
2018-09-10T19:16:08.625Z,10.20
2018-09-10T19:21:12.028Z,8.50
2018-09-10T19:26:15.809Z,24.27
2018-09-10T19:31:19.282Z,26.53
2018-09-10T19:36:22.710Z,14.40
2018-09-10T19:41:26.162Z,6.63
2018-09-10T19:46:30.155Z,12.00
2018-09-10T19:51:33.571Z,15.40
2018-09-10T19:56:37.495Z,16.77
2018-09-10T20:01:41.307Z,12.33
2018-09-10T20:06:44.738Z,22.37
2018-09-10T20:11:48.155Z,19.83
2018-09-10T20:16:51.825Z,19.43
2018-09-10T20:21:55.234Z,31.50
2018-09-10T20:26:58.744Z,21.67
2018-09-10T20:32:02.165Z,16.67
2018-09-10T20:37:05.877Z,21.53
2018-09-10T20:42:09.322Z,23.20
2018-09-10T20:47:13.238Z,30.37
2018-09-10T20:52:16.972Z,33.37
2018-09-10T20:57:20.434Z,20.40
2018-09-10T21:02:25.072Z,38.10
2018-09-10T21:07:29.546Z,28.27
2018-09-10T21:12:33.018Z,34.40
2018-09-10T21:17:36.463Z,37.50
2018-09-10T21:22:39.794Z,22.77
2018-09-10T21:27:43.178Z,25.33
2018-09-10T21:32:46.565Z,31.03
2018-09-10T21:37:50.224Z,17.30
2018-09-10T21:42:53.628Z,6.50
2018-09-10T21:47:57.262Z,12.27
2018-09-10T21:53:01.058Z,10.00
2018-09-10T21:58:04.479Z,19.47
2018-09-10T22:03:08.603Z,9.37
2018-09-10T22:08:12.917Z,9.93
2018-09-10T22:13:17.431Z,14.03
2018-09-10T22:18:21.079Z,7.90
2018-09-10T22:23:24.491Z,5.53
2018-09-10T22:28:28.221Z,14.73
2018-09-10T22:33:38.246Z,15.10
2018-09-10T22:38:42.831Z,18.20
2018-09-10T22:43:46.448Z,13.57
2018-09-10T22:48:50.471Z,8.30
2018-09-10T22:53:53.847Z,13.67
2018-09-10T22:58:57.961Z,18.80
2018-09-10T23:04:01.878Z,19.63
2018-09-10T23:09:07.675Z,16.37
2018-09-10T23:14:11.118Z,11.00
2018-09-10T23:19:16.538Z,10.43
2018-09-10T23:24:20.164Z,6.83
2018-09-10T23:29:23.978Z,19.50
2018-09-10T23:34:27.553Z,10.67
2018-09-10T23:39:31.332Z,13.77
2018-09-10T23:44:35.170Z,16.20
2018-09-10T23:49:39.026Z,10.40
2018-09-10T23:54:42.865Z,9.37
